sensor_id;sensor_type;location;lat;lon;timestamp;P1;durP1;ratioP1;P2;durP2;ratioP2
34064;SDS011;20339;49.754;20.158;2023-12-20T00:01:39;2.50;;;1.20;;
34064;SDS011;20339;49.754;20.158;2023-12-20T00:04:08;3.50;;;1.40;;
34064;SDS011;20339;49.754;20.158;2023-12-20T00:06:39;2.30;;;1.40;;
34064;SDS011;20339;49.754;20.158;2023-12-20T00:09:07;2.40;;;1.20;;
34064;SDS011;20339;49.754;20.158;2023-12-20T00:11:36;1.40;;;0.60;;
34064;SDS011;20339;49.754;20.158;2023-12-20T00:14:05;1.40;;;1.00;;
34064;SDS011;20339;49.754;20.158;2023-12-20T00:16:33;1.50;;;0.80;;
34064;SDS011;20339;49.754;20.158;2023-12-20T00:19:02;1.00;;;0.60;;
34064;SDS011;20339;49.754;20.158;2023-12-20T00:21:31;1.80;;;1.20;;
34064;SDS011;20339;49.754;20.158;2023-12-20T00:24:00;1.80;;;0.80;;
34064;SDS011;20339;49.754;20.158;2023-12-20T00:26:30;1.70;;;0.90;;
34064;SDS011;20339;49.754;20.158;2023-12-20T00:28:59;1.50;;;1.20;;
34064;SDS011;20339;49.754;20.158;2023-12-20T00:31:28;2.00;;;1.10;;
34064;SDS011;20339;49.754;20.158;2023-12-20T00:34:02;1.30;;;1.00;;
34064;SDS011;20339;49.754;20.158;2023-12-20T00:36:31;2.30;;;1.20;;
34064;SDS011;20339;49.754;20.158;2023-12-20T00:39:00;1.80;;;1.10;;
34064;SDS011;20339;49.754;20.158;2023-12-20T00:41:29;1.50;;;0.70;;
34064;SDS011;20339;49.754;20.158;2023-12-20T00:43:58;1.30;;;0.80;;
34064;SDS011;20339;49.754;20.158;2023-12-20T00:46:27;2.30;;;0.90;;
34064;SDS011;20339;49.754;20.158;2023-12-20T00:48:55;1.60;;;0.70;;
34064;SDS011;20339;49.754;20.158;2023-12-20T00:51:24;1.00;;;0.80;;
34064;SDS011;20339;49.754;20.158;2023-12-20T00:53:52;1.80;;;0.90;;
34064;SDS011;20339;49.754;20.158;2023-12-20T00:56:21;0.80;;;0.70;;
34064;SDS011;20339;49.754;20.158;2023-12-20T00:58:50;1.40;;;1.10;;
34064;SDS011;20339;49.754;20.158;2023-12-20T01:01:18;1.10;;;0.90;;
34064;SDS011;20339;49.754;20.158;2023-12-20T01:03:46;2.80;;;1.00;;
34064;SDS011;20339;49.754;20.158;2023-12-20T01:06:17;1.20;;;0.90;;
34064;SDS011;20339;49.754;20.158;2023-12-20T01:08:48;1.30;;;1.20;;
34064;SDS011;20339;49.754;20.158;2023-12-20T01:11:16;2.00;;;1.50;;
34064;SDS011;20339;49.754;20.158;2023-12-20T01:13:45;1.70;;;1.00;;
34064;SDS011;20339;49.754;20.158;2023-12-20T01:16:13;2.90;;;1.10;;
34064;SDS011;20339;49.754;20.158;2023-12-20T01:18:42;2.00;;;1.20;;
34064;SDS011;20339;49.754;20.158;2023-12-20T01:21:10;1.50;;;1.10;;
34064;SDS011;20339;49.754;20.158;2023-12-20T01:23:38;1.70;;;1.10;;
34064;SDS011;20339;49.754;20.158;2023-12-20T01:26:07;1.30;;;1.00;;
34064;SDS011;20339;49.754;20.158;2023-12-20T01:28:35;2.30;;;1.30;;
34064;SDS011;20339;49.754;20.158;2023-12-20T01:31:04;2.40;;;1.30;;
34064;SDS011;20339;49.754;20.158;2023-12-20T01:33:33;1.60;;;0.80;;
34064;SDS011;20339;49.754;20.158;2023-12-20T01:36:01;1.60;;;1.10;;
34064;SDS011;20339;49.754;20.158;2023-12-20T01:38:32;2.40;;;1.20;;
34064;SDS011;20339;49.754;20.158;2023-12-20T01:41:03;2.10;;;1.70;;
34064;SDS011;20339;49.754;20.158;2023-12-20T01:43:31;1.80;;;1.00;;
34064;SDS011;20339;49.754;20.158;2023-12-20T01:45:59;1.60;;;1.20;;
34064;SDS011;20339;49.754;20.158;2023-12-20T01:48:29;1.60;;;0.90;;
34064;SDS011;20339;49.754;20.158;2023-12-20T01:51:01;2.00;;;1.50;;
34064;SDS011;20339;49.754;20.158;2023-12-20T01:53:31;3.10;;;1.60;;
34064;SDS011;20339;49.754;20.158;2023-12-20T01:56:00;1.90;;;1.00;;
34064;SDS011;20339;49.754;20.158;2023-12-20T01:58:29;1.30;;;0.50;;
34064;SDS011;20339;49.754;20.158;2023-12-20T02:01:00;1.80;;;1.20;;
34064;SDS011;20339;49.754;20.158;2023-12-20T02:03:28;2.00;;;0.90;;
34064;SDS011;20339;49.754;20.158;2023-12-20T02:05:58;1.60;;;1.10;;
34064;SDS011;20339;49.754;20.158;2023-12-20T02:08:27;1.60;;;0.90;;
34064;SDS011;20339;49.754;20.158;2023-12-20T02:10:55;0.90;;;0.90;;
34064;SDS011;20339;49.754;20.158;2023-12-20T02:13:24;2.00;;;1.20;;
34064;SDS011;20339;49.754;20.158;2023-12-20T02:15:53;2.70;;;1.40;;
34064;SDS011;20339;49.754;20.158;2023-12-20T02:18:22;1.60;;;0.90;;
34064;SDS011;20339;49.754;20.158;2023-12-20T02:20:51;1.70;;;1.10;;
34064;SDS011;20339;49.754;20.158;2023-12-20T02:23:20;3.30;;;1.50;;
34064;SDS011;20339;49.754;20.158;2023-12-20T02:25:48;1.60;;;0.90;;
34064;SDS011;20339;49.754;20.158;2023-12-20T02:28:16;1.60;;;1.00;;
34064;SDS011;20339;49.754;20.158;2023-12-20T02:30:45;2.20;;;1.50;;
34064;SDS011;20339;49.754;20.158;2023-12-20T02:33:13;3.10;;;1.20;;
34064;SDS011;20339;49.754;20.158;2023-12-20T02:35:42;2.60;;;1.40;;
34064;SDS011;20339;49.754;20.158;2023-12-20T02:38:11;1.60;;;1.20;;
34064;SDS011;20339;49.754;20.158;2023-12-20T02:40:39;2.30;;;1.30;;
34064;SDS011;20339;49.754;20.158;2023-12-20T02:43:07;5.00;;;0.80;;
34064;SDS011;20339;49.754;20.158;2023-12-20T02:45:36;1.90;;;1.50;;
34064;SDS011;20339;49.754;20.158;2023-12-20T02:48:07;2.00;;;1.00;;
34064;SDS011;20339;49.754;20.158;2023-12-20T02:50:37;3.40;;;2.10;;
34064;SDS011;20339;49.754;20.158;2023-12-20T02:53:05;1.40;;;1.20;;
34064;SDS011;20339;49.754;20.158;2023-12-20T02:55:34;2.20;;;1.30;;
34064;SDS011;20339;49.754;20.158;2023-12-20T02:58:02;1.40;;;1.10;;
34064;SDS011;20339;49.754;20.158;2023-12-20T03:00:31;2.00;;;1.40;;
34064;SDS011;20339;49.754;20.158;2023-12-20T03:02:59;2.50;;;1.00;;
34064;SDS011;20339;49.754;20.158;2023-12-20T03:05:29;2.40;;;1.60;;
34064;SDS011;20339;49.754;20.158;2023-12-20T03:07:58;1.60;;;0.90;;
34064;SDS011;20339;49.754;20.158;2023-12-20T03:10:28;1.30;;;1.20;;
34064;SDS011;20339;49.754;20.158;2023-12-20T03:13:00;2.60;;;1.30;;
34064;SDS011;20339;49.754;20.158;2023-12-20T03:15:28;1.20;;;0.90;;
34064;SDS011;20339;49.754;20.158;2023-12-20T03:18:01;2.20;;;1.50;;
34064;SDS011;20339;49.754;20.158;2023-12-20T03:20:30;1.70;;;1.10;;
34064;SDS011;20339;49.754;20.158;2023-12-20T03:23:01;2.20;;;1.10;;
34064;SDS011;20339;49.754;20.158;2023-12-20T03:25:30;2.50;;;1.30;;
34064;SDS011;20339;49.754;20.158;2023-12-20T03:27:59;2.20;;;1.50;;
34064;SDS011;20339;49.754;20.158;2023-12-20T03:30:30;2.00;;;1.20;;
34064;SDS011;20339;49.754;20.158;2023-12-20T03:33:01;1.30;;;1.00;;
34064;SDS011;20339;49.754;20.158;2023-12-20T03:35:30;1.60;;;1.30;;
34064;SDS011;20339;49.754;20.158;2023-12-20T03:38:01;2.50;;;1.60;;
34064;SDS011;20339;49.754;20.158;2023-12-20T03:40:30;2.70;;;1.60;;
34064;SDS011;20339;49.754;20.158;2023-12-20T03:42:59;1.80;;;1.00;;
34064;SDS011;20339;49.754;20.158;2023-12-20T03:45:30;2.70;;;1.40;;
34064;SDS011;20339;49.754;20.158;2023-12-20T03:47:59;1.40;;;1.10;;
34064;SDS011;20339;49.754;20.158;2023-12-20T03:50:30;1.50;;;1.00;;
34064;SDS011;20339;49.754;20.158;2023-12-20T03:53:00;1.90;;;1.30;;
34064;SDS011;20339;49.754;20.158;2023-12-20T03:55:30;1.50;;;0.90;;
34064;SDS011;20339;49.754;20.158;2023-12-20T03:58:01;1.20;;;0.90;;
34064;SDS011;20339;49.754;20.158;2023-12-20T04:00:31;1.60;;;1.10;;
34064;SDS011;20339;49.754;20.158;2023-12-20T04:03:02;1.80;;;0.80;;
34064;SDS011;20339;49.754;20.158;2023-12-20T04:05:31;1.70;;;0.90;;
34064;SDS011;20339;49.754;20.158;2023-12-20T04:08:01;2.10;;;1.30;;
34064;SDS011;20339;49.754;20.158;2023-12-20T04:10:32;2.60;;;1.40;;
34064;SDS011;20339;49.754;20.158;2023-12-20T04:13:00;1.20;;;1.10;;
34064;SDS011;20339;49.754;20.158;2023-12-20T04:15:30;2.20;;;1.10;;
34064;SDS011;20339;49.754;20.158;2023-12-20T04:18:01;2.00;;;1.30;;
34064;SDS011;20339;49.754;20.158;2023-12-20T04:20:32;2.50;;;0.90;;
34064;SDS011;20339;49.754;20.158;2023-12-20T04:23:00;1.90;;;1.70;;
34064;SDS011;20339;49.754;20.158;2023-12-20T04:25:30;2.90;;;1.40;;
34064;SDS011;20339;49.754;20.158;2023-12-20T04:27:59;3.10;;;1.30;;
34064;SDS011;20339;49.754;20.158;2023-12-20T04:30:28;3.20;;;1.20;;
34064;SDS011;20339;49.754;20.158;2023-12-20T04:32:57;2.40;;;1.20;;
34064;SDS011;20339;49.754;20.158;2023-12-20T04:35:25;1.90;;;1.30;;
34064;SDS011;20339;49.754;20.158;2023-12-20T04:37:53;1.80;;;1.20;;
34064;SDS011;20339;49.754;20.158;2023-12-20T04:40:22;2.30;;;1.50;;
34064;SDS011;20339;49.754;20.158;2023-12-20T04:42:52;2.60;;;1.80;;
34064;SDS011;20339;49.754;20.158;2023-12-20T04:45:20;3.40;;;1.60;;
34064;SDS011;20339;49.754;20.158;2023-12-20T04:50:17;2.70;;;1.70;;
34064;SDS011;20339;49.754;20.158;2023-12-20T04:52:46;1.80;;;1.40;;
34064;SDS011;20339;49.754;20.158;2023-12-20T04:55:14;1.40;;;1.00;;
34064;SDS011;20339;49.754;20.158;2023-12-20T04:57:43;2.70;;;1.70;;
34064;SDS011;20339;49.754;20.158;2023-12-20T05:00:12;2.20;;;1.10;;
34064;SDS011;20339;49.754;20.158;2023-12-20T05:02:41;3.20;;;1.60;;
34064;SDS011;20339;49.754;20.158;2023-12-20T05:05:10;1.90;;;1.30;;
34064;SDS011;20339;49.754;20.158;2023-12-20T05:07:38;2.80;;;1.60;;
34064;SDS011;20339;49.754;20.158;2023-12-20T05:10:07;3.40;;;1.60;;
34064;SDS011;20339;49.754;20.158;2023-12-20T05:12:37;2.40;;;1.60;;
34064;SDS011;20339;49.754;20.158;2023-12-20T05:15:06;2.10;;;1.60;;
34064;SDS011;20339;49.754;20.158;2023-12-20T05:17:38;5.10;;;1.20;;
34064;SDS011;20339;49.754;20.158;2023-12-20T05:20:08;2.90;;;1.90;;
34064;SDS011;20339;49.754;20.158;2023-12-20T05:22:37;1.50;;;1.20;;
34064;SDS011;20339;49.754;20.158;2023-12-20T05:25:06;1.90;;;1.30;;
34064;SDS011;20339;49.754;20.158;2023-12-20T05:27:37;3.10;;;1.90;;
34064;SDS011;20339;49.754;20.158;2023-12-20T05:30:06;5.40;;;2.00;;
34064;SDS011;20339;49.754;20.158;2023-12-20T05:32:38;3.20;;;2.10;;
34064;SDS011;20339;49.754;20.158;2023-12-20T05:35:07;2.90;;;1.60;;
34064;SDS011;20339;49.754;20.158;2023-12-20T05:37:38;3.30;;;1.90;;
34064;SDS011;20339;49.754;20.158;2023-12-20T05:40:07;2.40;;;1.80;;
34064;SDS011;20339;49.754;20.158;2023-12-20T05:42:39;3.80;;;1.90;;
34064;SDS011;20339;49.754;20.158;2023-12-20T05:45:08;3.50;;;1.90;;
34064;SDS011;20339;49.754;20.158;2023-12-20T05:47:37;4.40;;;2.20;;
34064;SDS011;20339;49.754;20.158;2023-12-20T05:50:06;5.20;;;2.40;;
34064;SDS011;20339;49.754;20.158;2023-12-20T05:52:36;4.80;;;2.40;;
34064;SDS011;20339;49.754;20.158;2023-12-20T05:55:04;3.10;;;2.20;;
34064;SDS011;20339;49.754;20.158;2023-12-20T05:57:34;3.40;;;1.90;;
34064;SDS011;20339;49.754;20.158;2023-12-20T06:00:03;3.20;;;2.30;;
34064;SDS011;20339;49.754;20.158;2023-12-20T06:02:33;4.40;;;2.30;;
34064;SDS011;20339;49.754;20.158;2023-12-20T06:05:04;3.40;;;2.20;;
34064;SDS011;20339;49.754;20.158;2023-12-20T06:07:33;2.50;;;1.90;;
34064;SDS011;20339;49.754;20.158;2023-12-20T06:10:02;2.40;;;2.00;;
34064;SDS011;20339;49.754;20.158;2023-12-20T06:12:32;3.00;;;2.10;;
34064;SDS011;20339;49.754;20.158;2023-12-20T06:15:02;2.60;;;1.80;;
34064;SDS011;20339;49.754;20.158;2023-12-20T06:17:32;2.90;;;1.90;;
34064;SDS011;20339;49.754;20.158;2023-12-20T06:20:01;2.60;;;1.70;;
34064;SDS011;20339;49.754;20.158;2023-12-20T06:22:34;4.40;;;1.80;;
34064;SDS011;20339;49.754;20.158;2023-12-20T06:25:04;2.70;;;1.60;;
34064;SDS011;20339;49.754;20.158;2023-12-20T06:27:33;2.40;;;1.60;;
34064;SDS011;20339;49.754;20.158;2023-12-20T06:30:02;10.30;;;7.50;;
34064;SDS011;20339;49.754;20.158;2023-12-20T06:32:31;4.60;;;3.00;;
34064;SDS011;20339;49.754;20.158;2023-12-20T06:35:01;3.80;;;2.40;;
34064;SDS011;20339;49.754;20.158;2023-12-20T06:37:31;3.30;;;2.00;;
34064;SDS011;20339;49.754;20.158;2023-12-20T06:40:00;3.30;;;2.20;;
34064;SDS011;20339;49.754;20.158;2023-12-20T06:42:28;4.50;;;2.00;;
34064;SDS011;20339;49.754;20.158;2023-12-20T06:44:57;3.10;;;2.30;;
34064;SDS011;20339;49.754;20.158;2023-12-20T06:47:25;3.10;;;2.10;;
34064;SDS011;20339;49.754;20.158;2023-12-20T06:49:57;2.80;;;2.10;;
34064;SDS011;20339;49.754;20.158;2023-12-20T06:52:25;2.50;;;1.70;;
34064;SDS011;20339;49.754;20.158;2023-12-20T06:54:53;3.40;;;1.90;;
34064;SDS011;20339;49.754;20.158;2023-12-20T06:57:22;3.20;;;2.20;;
34064;SDS011;20339;49.754;20.158;2023-12-20T06:59:52;4.90;;;2.80;;
34064;SDS011;20339;49.754;20.158;2023-12-20T07:02:21;3.70;;;2.40;;
34064;SDS011;20339;49.754;20.158;2023-12-20T07:04:49;3.90;;;2.30;;
34064;SDS011;20339;49.754;20.158;2023-12-20T07:07:17;2.30;;;1.90;;
34064;SDS011;20339;49.754;20.158;2023-12-20T07:09:46;3.20;;;2.10;;
34064;SDS011;20339;49.754;20.158;2023-12-20T07:12:14;4.00;;;2.40;;
34064;SDS011;20339;49.754;20.158;2023-12-20T07:14:42;4.00;;;2.50;;
34064;SDS011;20339;49.754;20.158;2023-12-20T07:17:11;3.70;;;2.50;;
34064;SDS011;20339;49.754;20.158;2023-12-20T07:19:41;7.00;;;3.90;;
34064;SDS011;20339;49.754;20.158;2023-12-20T07:22:10;7.20;;;3.20;;
34064;SDS011;20339;49.754;20.158;2023-12-20T07:24:38;5.10;;;2.80;;
34064;SDS011;20339;49.754;20.158;2023-12-20T07:27:06;4.00;;;2.60;;
34064;SDS011;20339;49.754;20.158;2023-12-20T07:29:35;4.20;;;2.70;;
34064;SDS011;20339;49.754;20.158;2023-12-20T07:32:04;6.90;;;3.20;;
34064;SDS011;20339;49.754;20.158;2023-12-20T07:34:33;6.10;;;3.00;;
34064;SDS011;20339;49.754;20.158;2023-12-20T07:37:01;5.40;;;3.10;;
34064;SDS011;20339;49.754;20.158;2023-12-20T07:39:30;4.70;;;2.90;;
34064;SDS011;20339;49.754;20.158;2023-12-20T07:41:58;9.40;;;5.00;;
34064;SDS011;20339;49.754;20.158;2023-12-20T07:44:27;10.00;;;5.90;;
34064;SDS011;20339;49.754;20.158;2023-12-20T07:46:55;9.00;;;5.60;;
34064;SDS011;20339;49.754;20.158;2023-12-20T07:49:24;10.10;;;6.10;;
34064;SDS011;20339;49.754;20.158;2023-12-20T07:51:52;11.90;;;6.40;;
34064;SDS011;20339;49.754;20.158;2023-12-20T07:54:20;15.20;;;7.50;;
34064;SDS011;20339;49.754;20.158;2023-12-20T07:56:49;20.30;;;8.10;;
34064;SDS011;20339;49.754;20.158;2023-12-20T07:59:17;22.00;;;9.30;;
34064;SDS011;20339;49.754;20.158;2023-12-20T08:01:46;15.40;;;7.70;;
34064;SDS011;20339;49.754;20.158;2023-12-20T08:04:14;12.90;;;6.90;;
34064;SDS011;20339;49.754;20.158;2023-12-20T08:06:43;11.60;;;6.50;;
34064;SDS011;20339;49.754;20.158;2023-12-20T08:09:12;10.70;;;6.40;;
34064;SDS011;20339;49.754;20.158;2023-12-20T08:11:40;10.40;;;6.20;;
34064;SDS011;20339;49.754;20.158;2023-12-20T08:14:13;8.50;;;5.70;;
34064;SDS011;20339;49.754;20.158;2023-12-20T08:16:41;10.50;;;6.10;;
34064;SDS011;20339;49.754;20.158;2023-12-20T08:19:11;9.80;;;6.10;;
34064;SDS011;20339;49.754;20.158;2023-12-20T08:21:44;11.80;;;6.40;;
34064;SDS011;20339;49.754;20.158;2023-12-20T08:24:13;9.80;;;6.60;;
34064;SDS011;20339;49.754;20.158;2023-12-20T08:26:41;10.50;;;6.50;;
34064;SDS011;20339;49.754;20.158;2023-12-20T08:29:09;9.70;;;5.70;;
34064;SDS011;20339;49.754;20.158;2023-12-20T08:31:40;11.50;;;7.50;;
34064;SDS011;20339;49.754;20.158;2023-12-20T08:34:09;11.20;;;6.70;;
34064;SDS011;20339;49.754;20.158;2023-12-20T08:36:41;10.50;;;6.60;;
34064;SDS011;20339;49.754;20.158;2023-12-20T08:39:10;10.60;;;6.40;;
34064;SDS011;20339;49.754;20.158;2023-12-20T08:41:38;7.80;;;5.40;;
34064;SDS011;20339;49.754;20.158;2023-12-20T08:44:06;11.70;;;7.80;;
34064;SDS011;20339;49.754;20.158;2023-12-20T08:46:37;10.70;;;7.00;;
34064;SDS011;20339;49.754;20.158;2023-12-20T08:49:06;13.50;;;7.60;;
34064;SDS011;20339;49.754;20.158;2023-12-20T08:51:37;12.80;;;8.20;;
34064;SDS011;20339;49.754;20.158;2023-12-20T08:54:07;12.20;;;7.40;;
34064;SDS011;20339;49.754;20.158;2023-12-20T08:56:36;13.90;;;7.80;;
34064;SDS011;20339;49.754;20.158;2023-12-20T08:59:05;12.20;;;7.80;;
34064;SDS011;20339;49.754;20.158;2023-12-20T09:01:33;13.30;;;8.40;;
34064;SDS011;20339;49.754;20.158;2023-12-20T09:04:01;13.70;;;8.50;;
34064;SDS011;20339;49.754;20.158;2023-12-20T09:06:30;14.40;;;8.00;;
34064;SDS011;20339;49.754;20.158;2023-12-20T09:09:00;11.80;;;7.50;;
34064;SDS011;20339;49.754;20.158;2023-12-20T09:11:30;7.40;;;4.40;;
34064;SDS011;20339;49.754;20.158;2023-12-20T09:14:01;21.50;;;11.10;;
34064;SDS011;20339;49.754;20.158;2023-12-20T09:16:30;9.10;;;5.80;;
34064;SDS011;20339;49.754;20.158;2023-12-20T09:18:58;12.60;;;7.80;;
34064;SDS011;20339;49.754;20.158;2023-12-20T09:21:29;9.50;;;6.20;;
34064;SDS011;20339;49.754;20.158;2023-12-20T09:24:00;11.10;;;6.20;;
34064;SDS011;20339;49.754;20.158;2023-12-20T09:26:31;10.00;;;6.00;;
34064;SDS011;20339;49.754;20.158;2023-12-20T09:28:59;12.20;;;6.60;;
34064;SDS011;20339;49.754;20.158;2023-12-20T09:31:30;9.40;;;5.40;;
34064;SDS011;20339;49.754;20.158;2023-12-20T09:33:58;10.30;;;6.60;;
34064;SDS011;20339;49.754;20.158;2023-12-20T09:36:27;8.70;;;5.20;;
34064;SDS011;20339;49.754;20.158;2023-12-20T09:38:57;9.50;;;6.70;;
34064;SDS011;20339;49.754;20.158;2023-12-20T09:41:26;11.70;;;6.60;;
34064;SDS011;20339;49.754;20.158;2023-12-20T09:43:58;9.50;;;6.00;;
34064;SDS011;20339;49.754;20.158;2023-12-20T09:46:30;10.20;;;6.80;;
34064;SDS011;20339;49.754;20.158;2023-12-20T09:49:02;9.20;;;6.40;;
34064;SDS011;20339;49.754;20.158;2023-12-20T09:51:35;6.60;;;4.20;;
34064;SDS011;20339;49.754;20.158;2023-12-20T09:54:04;8.80;;;5.00;;
34064;SDS011;20339;49.754;20.158;2023-12-20T09:56:34;6.60;;;4.00;;
34064;SDS011;20339;49.754;20.158;2023-12-20T09:59:04;6.70;;;4.30;;
34064;SDS011;20339;49.754;20.158;2023-12-20T10:01:33;9.60;;;3.90;;
34064;SDS011;20339;49.754;20.158;2023-12-20T10:04:03;5.60;;;3.00;;
34064;SDS011;20339;49.754;20.158;2023-12-20T10:06:35;6.00;;;3.30;;
34064;SDS011;20339;49.754;20.158;2023-12-20T10:09:04;5.00;;;3.10;;
34064;SDS011;20339;49.754;20.158;2023-12-20T10:11:32;5.50;;;3.80;;
34064;SDS011;20339;49.754;20.158;2023-12-20T10:14:07;5.80;;;3.30;;
34064;SDS011;20339;49.754;20.158;2023-12-20T10:16:38;3.80;;;2.40;;
34064;SDS011;20339;49.754;20.158;2023-12-20T10:19:08;4.20;;;2.30;;
34064;SDS011;20339;49.754;20.158;2023-12-20T10:21:36;3.10;;;2.40;;
34064;SDS011;20339;49.754;20.158;2023-12-20T10:24:05;5.70;;;2.70;;
34064;SDS011;20339;49.754;20.158;2023-12-20T10:26:36;7.90;;;2.70;;
34064;SDS011;20339;49.754;20.158;2023-12-20T10:29:06;5.10;;;2.70;;
34064;SDS011;20339;49.754;20.158;2023-12-20T10:31:36;4.10;;;2.30;;
34064;SDS011;20339;49.754;20.158;2023-12-20T10:34:09;3.70;;;2.30;;
34064;SDS011;20339;49.754;20.158;2023-12-20T10:36:40;4.40;;;2.20;;
34064;SDS011;20339;49.754;20.158;2023-12-20T10:39:08;3.20;;;2.10;;
34064;SDS011;20339;49.754;20.158;2023-12-20T10:41:40;3.40;;;2.30;;
34064;SDS011;20339;49.754;20.158;2023-12-20T10:44:12;4.30;;;2.90;;
34064;SDS011;20339;49.754;20.158;2023-12-20T10:46:42;3.70;;;2.20;;
34064;SDS011;20339;49.754;20.158;2023-12-20T10:49:17;3.50;;;1.70;;
34064;SDS011;20339;49.754;20.158;2023-12-20T10:51:47;4.20;;;2.20;;
34064;SDS011;20339;49.754;20.158;2023-12-20T10:54:16;4.60;;;2.50;;
34064;SDS011;20339;49.754;20.158;2023-12-20T10:56:44;3.20;;;1.60;;
34064;SDS011;20339;49.754;20.158;2023-12-20T10:59:13;5.50;;;2.80;;
34064;SDS011;20339;49.754;20.158;2023-12-20T11:01:47;4.40;;;2.70;;
34064;SDS011;20339;49.754;20.158;2023-12-20T11:04:19;2.30;;;1.80;;
34064;SDS011;20339;49.754;20.158;2023-12-20T11:06:53;3.20;;;2.00;;
34064;SDS011;20339;49.754;20.158;2023-12-20T11:09:26;3.90;;;2.10;;
34064;SDS011;20339;49.754;20.158;2023-12-20T11:12:02;3.30;;;2.10;;
34064;SDS011;20339;49.754;20.158;2023-12-20T11:14:39;2.80;;;1.60;;
34064;SDS011;20339;49.754;20.158;2023-12-20T11:17:13;2.50;;;1.30;;
34064;SDS011;20339;49.754;20.158;2023-12-20T11:22:38;4.10;;;2.10;;
34064;SDS011;20339;49.754;20.158;2023-12-20T11:25:19;3.60;;;1.70;;
34064;SDS011;20339;49.754;20.158;2023-12-20T11:28:06;3.40;;;1.80;;
34064;SDS011;20339;49.754;20.158;2023-12-20T11:30:42;2.20;;;1.60;;
34064;SDS011;20339;49.754;20.158;2023-12-20T11:33:14;4.00;;;2.00;;
34064;SDS011;20339;49.754;20.158;2023-12-20T11:35:46;5.80;;;2.10;;
34064;SDS011;20339;49.754;20.158;2023-12-20T11:38:14;3.20;;;2.10;;
34064;SDS011;20339;49.754;20.158;2023-12-20T11:40:43;5.80;;;2.40;;
34064;SDS011;20339;49.754;20.158;2023-12-20T11:43:16;7.90;;;4.20;;
34064;SDS011;20339;49.754;20.158;2023-12-20T11:46:03;4.20;;;2.10;;
34064;SDS011;20339;49.754;20.158;2023-12-20T11:48:33;3.50;;;1.90;;
34064;SDS011;20339;49.754;20.158;2023-12-20T11:51:08;2.60;;;1.40;;
34064;SDS011;20339;49.754;20.158;2023-12-20T11:53:37;2.90;;;1.80;;
34064;SDS011;20339;49.754;20.158;2023-12-20T11:56:06;3.70;;;1.90;;
34064;SDS011;20339;49.754;20.158;2023-12-20T11:58:36;3.40;;;2.10;;
34064;SDS011;20339;49.754;20.158;2023-12-20T12:01:06;3.20;;;1.20;;
34064;SDS011;20339;49.754;20.158;2023-12-20T12:03:35;3.00;;;1.80;;
34064;SDS011;20339;49.754;20.158;2023-12-20T12:06:04;3.00;;;1.60;;
34064;SDS011;20339;49.754;20.158;2023-12-20T12:08:34;2.70;;;2.00;;
34064;SDS011;20339;49.754;20.158;2023-12-20T12:11:05;2.60;;;1.40;;
34064;SDS011;20339;49.754;20.158;2023-12-20T12:13:33;2.40;;;1.70;;
34064;SDS011;20339;49.754;20.158;2023-12-20T12:16:03;4.20;;;2.00;;
34064;SDS011;20339;49.754;20.158;2023-12-20T12:18:40;3.10;;;1.90;;
34064;SDS011;20339;49.754;20.158;2023-12-20T12:21:08;3.70;;;2.10;;
34064;SDS011;20339;49.754;20.158;2023-12-20T12:23:37;4.50;;;2.60;;
34064;SDS011;20339;49.754;20.158;2023-12-20T12:26:06;1.80;;;1.30;;
34064;SDS011;20339;49.754;20.158;2023-12-20T12:28:37;3.10;;;2.10;;
34064;SDS011;20339;49.754;20.158;2023-12-20T12:31:09;3.80;;;2.20;;
34064;SDS011;20339;49.754;20.158;2023-12-20T12:33:43;4.10;;;2.20;;
34064;SDS011;20339;49.754;20.158;2023-12-20T12:36:12;2.30;;;2.00;;
34064;SDS011;20339;49.754;20.158;2023-12-20T12:38:42;4.30;;;2.60;;
34064;SDS011;20339;49.754;20.158;2023-12-20T12:41:13;3.20;;;2.20;;
34064;SDS011;20339;49.754;20.158;2023-12-20T12:43:44;2.90;;;2.10;;
34064;SDS011;20339;49.754;20.158;2023-12-20T12:46:13;3.60;;;2.30;;
34064;SDS011;20339;49.754;20.158;2023-12-20T12:48:43;2.70;;;1.60;;
34064;SDS011;20339;49.754;20.158;2023-12-20T12:51:12;2.70;;;1.90;;
34064;SDS011;20339;49.754;20.158;2023-12-20T12:53:42;2.80;;;2.10;;
34064;SDS011;20339;49.754;20.158;2023-12-20T12:56:10;3.50;;;1.90;;
34064;SDS011;20339;49.754;20.158;2023-12-20T12:58:42;5.30;;;2.00;;
34064;SDS011;20339;49.754;20.158;2023-12-20T13:01:10;2.30;;;1.90;;
34064;SDS011;20339;49.754;20.158;2023-12-20T13:03:39;2.60;;;1.40;;
34064;SDS011;20339;49.754;20.158;2023-12-20T13:06:08;3.20;;;2.20;;
34064;SDS011;20339;49.754;20.158;2023-12-20T13:08:36;4.20;;;2.10;;
34064;SDS011;20339;49.754;20.158;2023-12-20T13:11:05;3.40;;;2.00;;
34064;SDS011;20339;49.754;20.158;2023-12-20T13:13:36;2.40;;;1.70;;
34064;SDS011;20339;49.754;20.158;2023-12-20T13:16:05;4.00;;;1.70;;
34064;SDS011;20339;49.754;20.158;2023-12-20T13:18:35;5.10;;;2.50;;
34064;SDS011;20339;49.754;20.158;2023-12-20T13:21:06;4.40;;;2.10;;
34064;SDS011;20339;49.754;20.158;2023-12-20T13:23:37;4.20;;;1.90;;
34064;SDS011;20339;49.754;20.158;2023-12-20T13:26:05;3.00;;;2.40;;
34064;SDS011;20339;49.754;20.158;2023-12-20T13:28:38;2.50;;;1.90;;
34064;SDS011;20339;49.754;20.158;2023-12-20T13:31:06;3.50;;;1.20;;
34064;SDS011;20339;49.754;20.158;2023-12-20T13:33:39;3.60;;;2.20;;
34064;SDS011;20339;49.754;20.158;2023-12-20T13:36:09;3.40;;;1.70;;
34064;SDS011;20339;49.754;20.158;2023-12-20T13:38:40;2.90;;;2.10;;
34064;SDS011;20339;49.754;20.158;2023-12-20T13:41:10;3.40;;;2.20;;
34064;SDS011;20339;49.754;20.158;2023-12-20T13:43:39;3.90;;;2.10;;
34064;SDS011;20339;49.754;20.158;2023-12-20T13:46:09;2.80;;;1.80;;
34064;SDS011;20339;49.754;20.158;2023-12-20T13:48:38;3.80;;;2.30;;
34064;SDS011;20339;49.754;20.158;2023-12-20T13:51:08;3.40;;;2.10;;
34064;SDS011;20339;49.754;20.158;2023-12-20T13:53:36;2.60;;;1.80;;
34064;SDS011;20339;49.754;20.158;2023-12-20T13:56:06;2.70;;;1.70;;
34064;SDS011;20339;49.754;20.158;2023-12-20T14:01:03;3.60;;;1.90;;
34064;SDS011;20339;49.754;20.158;2023-12-20T14:03:31;4.10;;;1.50;;
34064;SDS011;20339;49.754;20.158;2023-12-20T14:06:00;2.00;;;1.00;;
34064;SDS011;20339;49.754;20.158;2023-12-20T14:08:31;1.70;;;1.10;;
34064;SDS011;20339;49.754;20.158;2023-12-20T14:11:05;3.30;;;2.10;;
34064;SDS011;20339;49.754;20.158;2023-12-20T14:13:35;2.90;;;1.50;;
34064;SDS011;20339;49.754;20.158;2023-12-20T14:16:05;2.20;;;1.50;;
34064;SDS011;20339;49.754;20.158;2023-12-20T14:18:35;3.60;;;2.30;;
34064;SDS011;20339;49.754;20.158;2023-12-20T14:21:04;4.10;;;2.10;;
34064;SDS011;20339;49.754;20.158;2023-12-20T14:23:33;3.70;;;1.90;;
34064;SDS011;20339;49.754;20.158;2023-12-20T14:26:03;3.00;;;2.10;;
34064;SDS011;20339;49.754;20.158;2023-12-20T14:28:31;4.80;;;2.30;;
34064;SDS011;20339;49.754;20.158;2023-12-20T14:31:00;7.50;;;2.00;;
34064;SDS011;20339;49.754;20.158;2023-12-20T14:33:29;1.70;;;1.20;;
34064;SDS011;20339;49.754;20.158;2023-12-20T14:35:58;1.80;;;1.30;;
34064;SDS011;20339;49.754;20.158;2023-12-20T14:38:26;4.40;;;2.00;;
34064;SDS011;20339;49.754;20.158;2023-12-20T14:40:55;4.50;;;2.20;;
34064;SDS011;20339;49.754;20.158;2023-12-20T14:43:24;2.30;;;1.30;;
34064;SDS011;20339;49.754;20.158;2023-12-20T14:48:21;3.20;;;1.90;;
34064;SDS011;20339;49.754;20.158;2023-12-20T14:50:49;4.90;;;2.10;;
34064;SDS011;20339;49.754;20.158;2023-12-20T14:53:19;5.70;;;2.50;;
34064;SDS011;20339;49.754;20.158;2023-12-20T14:55:50;4.40;;;2.40;;
34064;SDS011;20339;49.754;20.158;2023-12-20T14:58:19;2.10;;;1.30;;